Time;durP1;ratioP1;P1;durP2;ratioP2;P2;SDS_P1;SDS_P2;PMS_P1;PMS_P2;Temp;Humidity;BMP_temperature;BMP_pressure;BME280_temperature;BME280_humidity;BME280_pressure;Samples;Min_cycle;Max_cycle;Signal;HPM_P1;HPM_P2
2022/03/19 00:00:53;;;;;;;12.23;3.97;;;;;;;6.58;68.33;102869.50;4982985;28;20488;-39
2022/03/19 00:03:20;;;;;;;7.30;3.65;;;;;;;6.54;68.59;102869.31;5002606;28;20101;-43
2022/03/19 00:05:47;;;;;;;12.70;4.13;;;;;;;6.51;67.52;102868.25;4995880;28;20133;-41
2022/03/19 00:08:16;;;;;;;10.07;3.53;;;;;;;6.46;68.51;102869.66;4993510;28;20042;-46
2022/03/19 00:10:43;;;;;;;14.75;4.28;;;;;;;6.42;67.72;102868.59;4992964;28;20116;-46
2022/03/19 00:13:10;;;;;;;14.98;4.38;;;;;;;6.40;68.08;102865.94;4999127;28;20097;-42
2022/03/19 00:15:37;;;;;;;11.60;4.07;;;;;;;6.35;68.60;102867.31;4994674;28;20062;-39
2022/03/19 00:18:04;;;;;;;17.05;4.05;;;;;;;6.32;68.58;102859.44;4992218;28;20046;-43
2022/03/19 00:20:32;;;;;;;16.98;4.25;;;;;;;6.30;69.16;102858.44;4995017;28;20456;-47
2022/03/19 00:22:59;;;;;;;12.77;4.38;;;;;;;6.27;68.50;102863.41;4992367;28;20046;-44
2022/03/19 00:25:25;;;;;;;16.00;3.90;;;;;;;6.23;68.08;102857.19;4993667;28;20068;-42
2022/03/19 00:27:52;;;;;;;13.52;4.15;;;;;;;6.20;69.04;102856.09;4991014;28;20096;-45
2022/03/19 00:30:19;;;;;;;14.13;4.03;;;;;;;6.17;68.91;102851.66;4995069;28;20101;-41
2022/03/19 00:32:46;;;;;;;13.90;4.30;;;;;;;6.12;68.62;102856.50;4992551;28;20540;-43
2022/03/19 00:35:13;;;;;;;11.50;3.95;;;;;;;6.10;69.19;102855.53;4998917;28;20046;-42
2022/03/19 00:40:22;;;;;;;16.83;4.68;;;;;;;6.05;69.43;102851.81;5041972;28;20413;-43
2022/03/19 00:42:49;;;;;;;;;;;;;;;5.94;70.22;102852.81;5030772;28;20053;-41
2022/03/19 00:45:16;;;;;;;15.23;4.03;;;;;;;5.92;70.44;102845.84;5019426;28;19921;-39
2022/03/19 00:47:43;;;;;;;11.73;4.55;;;;;;;5.94;69.92;102848.53;5024137;28;20110;-39
2022/03/19 00:50:10;;;;;;;15.32;4.60;;;;;;;5.93;68.69;102851.91;5020487;28;20099;-45
2022/03/19 00:52:37;;;;;;;18.95;5.05;;;;;;;5.91;68.98;102848.34;5023790;28;20043;-39
2022/03/19 00:55:04;;;;;;;22.45;5.32;;;;;;;5.90;69.98;102854.28;5021896;28;20045;-44
2022/03/19 00:57:39;;;;;;;20.15;5.00;;;;;;;5.87;69.41;102836.97;5024381;28;20583;-42
2022/03/19 01:00:09;;;;;;;18.58;5.45;;;;;;;5.87;69.07;102847.28;5020987;28;20103;-40
2022/03/19 01:02:36;;;;;;;14.45;4.82;;;;;;;5.87;69.58;102839.56;5024142;28;20105;-42
2022/03/19 01:05:03;;;;;;;13.60;4.25;;;;;;;5.84;69.33;102841.94;5023478;28;20497;-41
2022/03/19 01:07:29;;;;;;;11.60;3.75;;;;;;;5.80;69.55;102842.53;5019815;28;20050;-43
2022/03/19 01:09:56;;;;;;;15.57;4.82;;;;;;;5.81;70.04;102851.16;5026692;28;20111;-41
2022/03/19 01:12:22;;;;;;;12.80;4.18;;;;;;;5.78;70.12;102842.44;5027686;28;20049;-42
2022/03/19 01:14:49;;;;;;;17.30;5.07;;;;;;;5.77;70.05;102842.34;5025462;28;20096;-43
2022/03/19 01:17:16;;;;;;;16.92;6.80;;;;;;;5.75;69.29;102823.38;5020850;28;20351;-41
2022/03/19 01:19:52;;;;;;;13.93;4.88;;;;;;;5.73;69.08;102827.50;5021493;28;20060;-41
2022/03/19 01:22:21;;;;;;;19.77;5.05;;;;;;;5.70;68.93;102823.06;5028229;28;20099;-43
2022/03/19 01:24:50;;;;;;;13.27;5.40;;;;;;;5.69;70.01;102828.13;5027440;28;20051;-42
2022/03/19 01:27:18;;;;;;;12.90;4.68;;;;;;;5.67;69.03;102828.00;5021848;28;20149;-46
2022/03/19 01:29:48;;;;;;;13.73;5.18;;;;;;;5.64;70.27;102823.56;5021342;28;20042;-42
2022/03/19 01:32:17;;;;;;;16.75;4.45;;;;;;;5.63;69.04;102821.81;5016701;28;20062;-42
2022/03/19 01:34:46;;;;;;;19.77;6.10;;;;;;;5.60;69.31;102821.59;5017197;28;20081;-40
2022/03/19 01:37:14;;;;;;;16.00;6.13;;;;;;;5.59;69.84;102811.22;5019855;28;20057;-45
2022/03/19 01:39:41;;;;;;;17.15;5.07;;;;;;;5.57;70.00;102818.84;5006896;28;20054;-43
2022/03/19 01:42:07;;;;;;;15.75;5.85;;;;;;;5.55;69.92;102823.00;5000651;28;20073;-43
2022/03/19 01:44:34;;;;;;;14.10;4.65;;;;;;;5.53;69.90;102814.28;5001533;28;20054;-43
2022/03/19 01:47:07;;;;;;;15.18;5.28;;;;;;;5.50;70.55;102812.44;4997863;28;20507;-47
2022/03/19 01:49:34;;;;;;;17.65;5.90;;;;;;;5.49;70.15;102817.47;4997268;28;20050;-42
2022/03/19 01:52:01;;;;;;;17.55;4.40;;;;;;;5.45;69.57;102820.66;4988212;28;20213;-41
2022/03/19 01:54:33;;;;;;;16.40;4.88;;;;;;;5.43;69.43;102802.56;4984085;28;20101;-39
2022/03/19 01:57:01;;;;;;;16.90;5.50;;;;;;;5.40;70.42;102803.25;4985014;28;20042;-42
2022/03/19 01:59:34;;;;;;;16.25;4.65;;;;;;;5.40;70.26;102802.34;4986346;28;20112;-43
2022/03/19 02:02:03;;;;;;;15.45;5.25;;;;;;;5.35;70.32;102799.50;4983472;28;20046;-39
2022/03/19 02:04:31;;;;;;;14.35;5.18;;;;;;;5.34;69.60;102795.13;4984483;28;20101;-41
2022/03/19 02:06:58;;;;;;;15.73;4.97;;;;;;;5.32;69.98;102793.28;4987493;28;20525;-40
2022/03/19 02:09:25;;;;;;;18.00;4.93;;;;;;;5.29;70.03;102788.84;4986196;28;20050;-47
2022/03/19 02:11:52;;;;;;;17.65;4.60;;;;;;;5.28;69.62;102792.19;4984319;28;20046;-43
2022/03/19 02:14:19;;;;;;;16.50;5.00;;;;;;;5.25;69.80;102786.84;4989326;28;20050;-42
2022/03/19 02:16:51;;;;;;;13.93;4.65;;;;;;;5.23;69.83;102780.72;4982695;28;20046;-42
2022/03/19 02:19:18;;;;;;;15.30;5.10;;;;;;;5.19;70.32;102777.09;4982684;28;20388;-44
2022/03/19 02:21:47;;;;;;;14.63;5.22;;;;;;;5.19;70.38;102777.09;4987054;28;20101;-40
2022/03/19 02:27:02;;;;;;;20.85;4.88;;;;;;;5.13;70.00;102762.16;5001168;28;20096;-41
2022/03/19 02:29:29;;;;;;;14.07;5.05;;;;;;;5.10;70.19;102761.97;5005026;28;20410;-42
2022/03/19 02:31:59;;;;;;;12.50;4.03;;;;;;;5.08;69.92;102766.13;5005964;28;20053;-45
2022/03/19 02:34:27;;;;;;;18.25;5.20;;;;;;;5.04;69.73;102761.59;5002169;28;20080;-42
2022/03/19 02:36:53;;;;;;;15.70;5.25;;;;;;;5.01;70.08;102762.25;5006366;28;20506;-41
2022/03/19 02:39:31;;;;;;;15.63;5.60;;;;;;;4.98;70.59;102753.47;5002590;28;20053;-40
2022/03/19 02:42:00;;;;;;;18.35;5.25;;;;;;;4.95;70.26;102751.59;5004735;28;20105;-42
2022/03/19 02:44:28;;;;;;;15.05;4.90;;;;;;;4.92;70.40;102746.25;4999854;28;20609;-43
2022/03/19 02:46:57;;;;;;;15.02;4.75;;;;;;;4.91;70.61;102743.59;5004998;28;20087;-42
2022/03/19 02:49:24;;;;;;;21.90;4.60;;;;;;;4.89;70.36;102743.50;5000607;28;20073;-40
2022/03/19 02:51:52;;;;;;;13.50;4.78;;;;;;;4.85;70.94;102738.94;5002446;28;20050;-42
2022/03/19 02:54:22;;;;;;;8.88;4.22;;;;;;;4.80;70.53;102723.25;4996221;28;20506;-44
2022/03/19 02:56:50;;;;;;;10.43;4.50;;;;;;;4.76;70.66;102719.59;4992654;28;20107;-45
2022/03/19 03:04:35;;;;;;;22.05;4.18;;;;;;;4.68;71.05;102719.88;5016049;28;20941;-41
2022/03/19 03:07:03;;;;;;;17.70;3.72;;;;;;;4.65;70.40;102715.44;4966310;28;20110;-40
2022/03/19 03:09:32;;;;;;;17.35;4.20;;;;;;;4.65;70.80;102715.44;4994806;28;20077;-45
2022/03/19 03:12:01;;;;;;;13.98;4.50;;;;;;;4.62;71.02;102711.00;5001744;28;20054;-42
2022/03/19 03:14:29;;;;;;;18.80;5.82;;;;;;;4.59;71.48;102708.22;4962435;28;20051;-43
2022/03/19 03:16:59;;;;;;;11.93;3.40;;;;;;;4.56;70.82;102710.59;4965163;28;20059;-40
2022/03/19 03:19:26;;;;;;;11.35;4.40;;;;;;;4.54;70.93;102706.16;4964917;28;20700;-40
2022/03/19 03:21:53;;;;;;;20.17;6.22;;;;;;;4.50;70.63;102705.09;4970249;28;20082;-41
2022/03/19 03:24:19;;;;;;;18.42;4.78;;;;;;;4.47;71.68;102699.75;4964393;28;20051;-40
2022/03/19 03:26:46;;;;;;;20.50;6.35;;;;;;;4.45;71.27;102697.06;4962032;28;20047;-40
2022/03/19 03:29:14;;;;;;;8.30;3.85;;;;;;;4.42;71.75;102690.88;4966144;28;20055;-40
2022/03/19 03:31:41;;;;;;;11.68;2.83;;;;;;;4.39;72.20;102695.78;4969995;28;20051;-40
2022/03/19 03:34:08;;;;;;;12.18;3.58;;;;;;;4.40;71.55;102688.19;4962106;28;20066;-40
2022/03/19 03:36:34;;;;;;;19.75;3.50;;;;;;;4.36;72.60;102681.97;4963237;28;20055;-40
2022/03/19 03:39:02;;;;;;;12.52;3.47;;;;;;;4.34;72.16;102686.13;4962002;28;20106;-42
2022/03/19 03:41:28;;;;;;;14.98;4.32;;;;;;;4.34;72.05;102683.56;4978360;28;20110;-37
2022/03/19 03:43:55;;;;;;;14.68;3.22;;;;;;;4.31;72.19;102678.22;4959025;28;20079;-41
2022/03/19 03:46:21;;;;;;;11.75;3.08;;;;;;;4.31;72.23;102677.31;4961015;28;20098;-39
2022/03/19 03:48:48;;;;;;;13.73;4.78;;;;;;;4.29;72.20;102668.63;4963485;28;20134;-40
2022/03/19 03:51:16;;;;;;;12.13;3.67;;;;;;;4.29;72.89;102679.78;4963615;28;20059;-39
2022/03/19 03:53:45;;;;;;;14.68;4.40;;;;;;;4.28;71.98;102677.09;4962705;28;20438;-39
2022/03/19 03:56:12;;;;;;;11.40;3.50;;;;;;;4.25;72.29;102672.66;4958742;28;20403;-44
2022/03/19 03:58:40;;;;;;;9.55;2.30;;;;;;;4.22;73.33;102678.50;4961364;28;20054;-43
2022/03/19 04:01:08;;;;;;;16.45;4.90;;;;;;;4.22;72.54;102677.63;4973995;28;20082;-43
2022/03/19 04:03:35;;;;;;;13.70;3.30;;;;;;;4.22;72.29;102675.91;4961403;28;20051;-38
2022/03/19 04:06:02;;;;;;;7.05;2.90;;;;;;;4.18;72.45;102670.47;4962750;28;20047;-39
2022/03/19 04:08:29;;;;;;;13.23;3.20;;;;;;;4.17;73.15;102669.59;4961441;28;20078;-42
2022/03/19 04:10:55;;;;;;;13.40;3.63;;;;;;;4.15;73.05;102665.16;4958596;28;20051;-38
2022/03/19 04:13:22;;;;;;;14.93;3.30;;;;;;;4.11;73.42;102664.06;4962820;28;20129;-41
2022/03/19 04:15:50;;;;;;;13.02;2.55;;;;;;;4.11;73.23;102664.06;4950008;28;20051;-43
2022/03/19 04:18:16;;;;;;;10.75;3.03;;;;;;;4.07;73.62;102657.84;4949496;28;20047;-40
2022/03/19 04:20:43;;;;;;;11.93;3.83;;;;;;;4.06;74.22;102663.75;4946460;29;20051;-46
2022/03/19 04:23:10;;;;;;;9.63;3.00;;;;;;;4.05;73.74;102659.41;4949028;28;20039;-42
2022/03/19 04:25:36;;;;;;;13.90;3.85;;;;;;;4.03;73.59;102650.75;4947879;28;20052;-40
2022/03/19 04:28:03;;;;;;;10.93;4.43;;;;;;;4.03;74.64;102655.88;4949363;28;20115;-40
2022/03/19 04:30:30;;;;;;;11.13;3.20;;;;;;;4.00;74.15;102655.66;4947800;28;20463;-36
2022/03/19 04:33:00;;;;;;;11.63;2.85;;;;;;;3.98;74.29;102657.22;4947706;28;20043;-37
2022/03/19 04:38:18;;;;;;;9.13;2.90;;;;;;;3.96;74.00;102646.00;4935394;29;20114;-41
2022/03/19 04:40:46;;;;;;;12.23;2.70;;;;;;;3.95;74.28;102646.78;4947329;28;20649;-43
2022/03/19 04:43:13;;;;;;;22.80;3.58;;;;;;;3.93;74.47;102645.78;4960504;28;20047;-39
2022/03/19 04:45:41;;;;;;;21.77;3.38;;;;;;;3.93;74.34;102639.00;4929551;29;20047;-43
2022/03/19 04:48:09;;;;;;;13.07;3.80;;;;;;;3.92;74.11;102646.56;4948891;28;21028;-41
2022/03/19 04:50:38;;;;;;;12.98;3.33;;;;;;;3.89;74.06;102647.25;4951295;29;20838;-41
2022/03/19 04:53:07;;;;;;;14.20;4.88;;;;;;;3.88;74.08;102645.47;4944668;28;20424;-42
2022/03/19 04:55:37;;;;;;;9.65;2.70;;;;;;;3.84;73.76;102649.50;4948521;28;20122;-39
2022/03/19 04:58:05;;;;;;;10.35;2.97;;;;;;;3.83;74.05;102652.88;4946954;28;20106;-40
2022/03/19 05:00:32;;;;;;;15.77;5.32;;;;;;;3.79;73.96;102640.63;4943090;28;20054;-40
2022/03/19 05:03:03;;;;;;;14.32;4.53;;;;;;;3.79;73.38;102642.28;4946442;28;20039;-39
2022/03/19 05:05:30;;;;;;;15.75;3.50;;;;;;;3.75;74.52;102638.63;4951580;28;20044;-41
2022/03/19 05:07:57;;;;;;;14.88;3.28;;;;;;;3.73;73.66;102635.09;4943745;28;20051;-40
2022/03/19 05:13:10;;;;;;;12.60;3.30;;;;;;;3.70;73.83;102629.75;4957021;28;20055;-39
2022/03/19 05:15:38;;;;;;;11.10;5.53;;;;;;;3.67;74.21;102638.13;4947525;28;20055;-40
2022/03/19 05:18:05;;;;;;;13.88;3.42;;;;;;;3.66;74.11;102632.88;4946315;28;20051;-42
2022/03/19 05:20:34;;;;;;;13.88;3.35;;;;;;;3.65;74.45;102634.56;4949155;29;20142;-40
2022/03/19 05:23:02;;;;;;;13.85;3.33;;;;;;;3.62;74.42;102636.03;4947458;28;20063;-38
2022/03/19 05:25:28;;;;;;;15.57;3.47;;;;;;;3.63;74.60;102632.66;4950146;28;20051;-40
2022/03/19 05:27:55;;;;;;;15.70;3.45;;;;;;;3.60;74.71;102634.25;4947582;28;20121;-40
2022/03/19 05:30:22;;;;;;;14.63;2.80;;;;;;;3.57;74.95;102634.03;4948267;28;20539;-39
2022/03/19 05:32:49;;;;;;;7.13;2.85;;;;;;;3.55;74.75;102635.59;4947498;28;20113;-42
2022/03/19 05:35:18;;;;;;;18.98;3.72;;;;;;;3.59;74.52;102632.47;4947913;28;20056;-43
2022/03/19 05:37:47;;;;;;;12.48;3.70;;;;;;;3.58;75.32;102640.06;4945992;28;20510;-42
2022/03/19 05:40:14;;;;;;;17.05;5.38;;;;;;;3.56;74.86;102639.97;4947724;28;20098;-41
2022/03/19 05:42:41;;;;;;;13.32;3.88;;;;;;;3.55;74.84;102635.59;4944444;28;20051;-40
2022/03/19 05:45:10;;;;;;;18.27;3.85;;;;;;;3.52;74.71;102635.41;4942140;28;20118;-41
2022/03/19 05:47:38;;;;;;;11.25;2.88;;;;;;;3.52;75.33;102634.53;4947888;28;20484;-40
2022/03/19 05:50:06;;;;;;;14.05;2.75;;;;;;;3.51;75.56;102638.75;4945441;28;20507;-36
2022/03/19 05:52:33;;;;;;;7.53;2.80;;;;;;;3.49;75.14;102630.09;4947874;28;20067;-39
2022/03/19 05:55:00;;;;;;;10.88;5.43;;;;;;;3.49;74.55;102635.19;4946439;28;20047;-42
2022/03/19 05:57:26;;;;;;;13.40;5.72;;;;;;;3.49;75.07;102634.31;4946930;28;20058;-40
2022/03/19 05:59:56;;;;;;;26.65;5.28;;;;;;;3.47;75.40;102629.06;4945844;28;20137;-38
2022/03/19 06:02:23;;;;;;;12.25;3.33;;;;;;;3.45;75.48;102625.53;4959771;28;20051;-43
2022/03/19 06:04:49;;;;;;;11.93;4.03;;;;;;;3.44;75.17;102623.72;4946524;28;20483;-39
2022/03/19 06:07:16;;;;;;;12.20;3.92;;;;;;;3.44;74.99;102621.16;4946057;28;20098;-38
2022/03/19 06:09:43;;;;;;;17.00;3.88;;;;;;;3.43;74.52;102622.84;4945550;28;20083;-38
2022/03/19 06:12:10;;;;;;;20.10;4.43;;;;;;;3.43;75.32;102629.66;4945794;28;20055;-38
2022/03/19 06:14:36;;;;;;;12.35;3.38;;;;;;;3.41;74.67;102626.09;4948486;29;20094;-40
2022/03/19 06:17:03;;;;;;;15.43;3.40;;;;;;;3.41;74.66;102620.97;4944550;28;20109;-38
2022/03/19 06:19:30;;;;;;;17.33;3.70;;;;;;;3.40;75.43;102614.06;4945598;28;20081;-41
2022/03/19 06:21:57;;;;;;;13.85;4.22;;;;;;;3.39;75.63;102615.75;4946996;28;20422;-38
2022/03/19 06:24:23;;;;;;;19.33;5.13;;;;;;;3.40;74.84;102620.09;4947651;28;20719;-38
2022/03/19 06:26:51;;;;;;;16.92;5.35;;;;;;;3.43;75.16;102614.28;4949996;28;20055;-40
2022/03/19 06:29:17;;;;;;;19.20;4.93;;;;;;;3.42;74.86;102612.50;4944760;29;20137;-40
2022/03/19 06:31:44;;;;;;;9.98;3.30;;;;;;;3.43;74.97;102609.16;4945009;28;20987;-39
2022/03/19 06:34:11;;;;;;;17.10;4.68;;;;;;;3.44;75.72;102611.81;4954545;28;20074;-42
2022/03/19 06:39:24;;;;;;;19.98;4.55;;;;;;;3.52;75.44;102619.16;4952224;28;20097;-45
2022/03/19 06:41:50;;;;;;;13.85;6.47;;;;;;;3.51;75.17;102610.56;4948696;28;20047;-42
2022/03/19 06:44:17;;;;;;;16.08;5.97;;;;;;;3.58;75.38;102620.44;4947370;28;20692;-44
2022/03/19 06:46:43;;;;;;;14.15;4.25;;;;;;;3.63;74.89;102622.41;4949087;28;20051;-41
2022/03/19 06:49:11;;;;;;;14.35;4.63;;;;;;;3.68;75.28;102626.22;4950660;28;20047;-39
2022/03/19 06:51:38;;;;;;;15.20;5.65;;;;;;;3.73;75.20;102629.97;4949309;28;20051;-40
2022/03/19 06:54:04;;;;;;;14.98;4.63;;;;;;;3.75;75.96;102612.97;4945866;28;20043;-37
2022/03/19 06:56:31;;;;;;;14.75;4.85;;;;;;;3.82;75.25;102614.31;4948454;28;20074;-41
2022/03/19 06:58:58;;;;;;;18.77;4.47;;;;;;;3.86;75.35;102608.59;4947184;28;20125;-40
2022/03/19 07:01:25;;;;;;;9.40;2.85;;;;;;;3.89;75.93;102615.59;4950810;28;20058;-38
2022/03/19 07:03:52;;;;;;;8.40;2.75;;;;;;;3.93;76.66;102602.19;4944737;28;20130;-38
2022/03/19 07:06:19;;;;;;;21.00;6.47;;;;;;;3.98;76.40;102595.69;4951686;28;20050;-37
2022/03/19 07:09:05;;;;;;;14.52;4.43;;;;;;;4.05;76.14;102610.69;4949733;28;20134;-41
2022/03/19 07:11:35;;;;;;;19.40;4.50;;;;;;;4.11;76.30;102608.53;4950503;28;20046;-39
2022/03/19 07:14:04;;;;;;;16.02;5.53;;;;;;;4.16;76.15;102606.28;4949616;28;20127;-39
2022/03/19 07:16:33;;;;;;;18.15;4.97;;;;;;;4.22;76.46;102605.78;4951229;28;20097;-41
2022/03/19 07:19:00;;;;;;;17.30;5.05;;;;;;;4.26;76.82;102602.63;4951851;28;20094;-41
2022/03/19 07:21:27;;;;;;;11.73;4.43;;;;;;;4.32;76.24;102603.00;4944139;28;20075;-37
2022/03/19 07:23:53;;;;;;;13.80;3.88;;;;;;;4.41;76.32;102612.06;4950316;28;20102;-38
2022/03/19 07:26:20;;;;;;;16.42;4.93;;;;;;;4.48;76.29;102603.97;4942297;28;20079;-38
2022/03/19 07:28:46;;;;;;;15.10;3.83;;;;;;;4.55;76.57;102593.31;4941793;28;20106;-39
2022/03/19 07:31:14;;;;;;;16.20;4.80;;;;;;;4.70;76.64;102595.94;4941447;28;20502;-43
2022/03/19 07:33:41;;;;;;;18.65;6.90;;;;;;;5.37;76.25;102601.69;4942591;28;20043;-40
2022/03/19 07:36:07;;;;;;;25.13;8.20;;;;;;;6.37;75.06;102594.53;4941280;28;20050;-41
2022/03/19 07:38:35;;;;;;;14.05;5.45;;;;;;;7.29;73.73;102584.84;4941598;28;20110;-41
2022/03/19 07:43:48;;;;;;;21.42;6.30;;;;;;;9.03;69.48;102593.97;4938355;28;20074;-40
2022/03/19 07:46:15;;;;;;;18.27;6.05;;;;;;;9.70;66.90;102589.06;4940875;28;20055;-42
2022/03/19 07:48:41;;;;;;;16.58;4.68;;;;;;;10.18;65.06;102592.72;4940330;28;20059;-43
2022/03/19 07:51:09;;;;;;;17.90;6.60;;;;;;;10.70;64.02;102595.59;4938833;28;20055;-42
2022/03/19 07:53:37;;;;;;;17.27;6.00;;;;;;;10.90;62.48;102591.16;4950307;28;20047;-39
2022/03/19 07:56:04;;;;;;;18.27;5.90;;;;;;;11.10;61.99;102582.31;4946432;28;20063;-39
2022/03/19 07:58:31;;;;;;;17.60;6.32;;;;;;;11.19;61.32;102580.94;4943103;28;20063;-39
2022/03/19 08:00:57;;;;;;;21.13;6.65;;;;;;;11.40;61.21;102579.03;4941113;28;20484;-41
2022/03/19 08:03:24;;;;;;;24.45;8.68;;;;;;;11.57;61.17;102582.22;4944106;28;20459;-40
2022/03/19 08:05:51;;;;;;;23.85;5.63;;;;;;;11.60;59.13;102587.53;4945577;28;20054;-43
2022/03/19 08:08:17;;;;;;;19.50;6.53;;;;;;;11.35;59.05;102585.81;4947533;28;20055;-45
2022/03/19 08:10:45;;;;;;;20.08;6.03;;;;;;;11.43;59.68;102589.53;4942659;28;20047;-39
2022/03/19 08:13:12;;;;;;;14.98;6.07;;;;;;;11.68;58.34;102586.06;4941249;28;20059;-40
2022/03/19 08:15:40;;;;;;;18.63;6.55;;;;;;;11.70;57.61;102586.13;4945764;28;20039;-43
2022/03/19 08:18:09;;;;;;;13.13;5.53;;;;;;;11.72;58.56;102581.84;4944258;28;20142;-44
2022/03/19 08:20:37;;;;;;;19.55;6.40;;;;;;;11.85;58.88;102579.69;4947075;28;20091;-43
2022/03/19 08:23:03;;;;;;;19.50;6.47;;;;;;;12.24;58.82;102571.41;4941570;28;20074;-40
2022/03/19 08:25:31;;;;;;;19.00;6.35;;;;;;;12.31;57.69;102562.97;4948949;28;20048;-40
2022/03/19 08:27:58;;;;;;;13.60;5.47;;;;;;;12.47;57.78;102571.25;4950869;28;20051;-43
2022/03/19 08:30:31;;;;;;;15.25;5.57;;;;;;;12.57;56.61;102575.00;4949475;28;20110;-43
2022/03/19 08:32:57;;;;;;;16.77;6.35;;;;;;;12.59;57.25;102563.78;4951707;28;20047;-40
2022/03/19 08:35:24;;;;;;;14.65;5.95;;;;;;;12.41;56.33;102573.63;4951427;28;20138;-38
2022/03/19 08:40:15;;;;;;;16.83;6.88;;;;;;;12.27;57.90;102574.13;4948649;28;20051;-44
2022/03/19 08:40:37;;;;;;;18.70;5.28;;;;;;;12.47;56.40;102558.25;4950502;28;20491;-41
2022/03/19 08:43:04;;;;;;;14.85;6.68;;;;;;;12.24;55.57;102573.13;4950943;28;20640;-43
2022/03/19 08:45:31;;;;;;;14.60;6.95;;;;;;;12.44;56.00;102564.25;4948418;28;20059;-42
2022/03/19 08:47:57;;;;;;;14.00;5.78;;;;;;;12.69;55.63;102579.66;4951022;28;20051;-42
2022/03/19 08:50:27;;;;;;;18.33;6.47;;;;;;;12.47;56.98;102564.31;4948778;28;20110;-41
2022/03/19 08:52:53;;;;;;;21.80;6.13;;;;;;;12.55;55.23;102577.53;4950254;28;20050;-38
2022/03/19 08:55:20;;;;;;;14.13;5.63;;;;;;;12.55;55.71;102577.53;4945623;28;20071;-42
2022/03/19 08:57:47;;;;;;;17.60;8.02;;;;;;;13.02;55.31;102562.38;4949916;29;20428;-46
2022/03/19 09:00:14;;;;;;;16.83;6.20;;;;;;;13.40;55.40;102570.31;4948856;28;20130;-41
2022/03/19 09:02:41;;;;;;;14.73;6.65;;;;;;;13.74;52.49;102559.91;4949535;29;20487;-43
2022/03/19 09:05:08;;;;;;;16.17;6.53;;;;;;;13.94;53.51;102562.09;4951292;28;20043;-47
2022/03/19 09:07:35;;;;;;;9.93;4.63;;;;;;;14.30;52.42;102556.00;4949980;28;20531;-42
2022/03/19 09:10:03;;;;;;;11.98;5.07;;;;;;;14.70;50.77;102549.84;4947834;28;20058;-39
2022/03/19 09:12:33;;;;;;;17.75;6.57;;;;;;;15.10;50.57;102550.63;4949884;28;20079;-44
2022/03/19 09:14:59;;;;;;;12.38;5.03;;;;;;;15.64;49.28;102548.09;4950572;28;20055;-40
2022/03/19 09:17:26;;;;;;;13.27;6.18;;;;;;;15.52;47.82;102558.34;4940369;29;21459;-45
2022/03/19 09:19:53;;;;;;;18.05;6.03;;;;;;;15.29;48.13;102548.38;4947243;28;20773;-42
2022/03/19 09:22:19;;;;;;;13.32;5.40;;;;;;;15.65;47.92;102555.09;4951059;28;20106;-40
2022/03/19 09:24:46;;;;;;;16.02;5.55;;;;;;;15.49;47.32;102548.72;4944883;28;20499;-41
2022/03/19 09:27:13;;;;;;;12.90;5.38;;;;;;;15.83;47.67;102543.16;4945447;28;20047;-42
2022/03/19 09:29:42;;;;;;;14.18;5.75;;;;;;;16.37;46.31;102539.56;4950036;28;20055;-43
2022/03/19 09:32:11;;;;;;;15.32;5.65;;;;;;;16.16;43.87;102541.94;4948015;28;20047;-44
2022/03/19 09:34:39;;;;;;;13.98;4.65;;;;;;;16.25;44.78;102537.69;4947182;28;20039;-39
2022/03/19 09:37:06;;;;;;;10.52;4.30;;;;;;;16.38;43.62;102530.88;4947130;28;20098;-44
2022/03/19 09:39:34;;;;;;;11.00;4.05;;;;;;;16.18;43.41;102529.75;4941967;28;20051;-41
2022/03/19 09:42:02;;;;;;;9.82;4.93;;;;;;;16.27;43.01;102533.34;4946983;28;20047;-41
2022/03/19 09:44:30;;;;;;;11.85;4.25;;;;;;;16.22;42.11;102546.38;4948829;29;20050;-39
2022/03/19 09:46:57;;;;;;;13.00;4.00;;;;;;;16.14;42.25;102522.72;4941525;28;20492;-42
2022/03/19 09:49:23;;;;;;;13.65;3.88;;;;;;;16.54;42.82;102527.59;4939822;28;20110;-42
2022/03/19 09:51:53;;;;;;;8.20;3.45;;;;;;;16.41;42.12;102530.91;4948905;28;20051;-42
2022/03/19 09:54:22;;;;;;;10.23;4.57;;;;;;;16.58;42.92;102518.91;4948739;28;20059;-41
2022/03/19 09:56:50;;;;;;;13.40;4.60;;;;;;;16.67;40.29;102518.16;4946416;28;20047;-41
2022/03/19 09:59:17;;;;;;;12.70;3.83;;;;;;;16.51;40.88;102517.09;4947734;28;20043;-45
2022/03/19 10:01:45;;;;;;;12.93;4.22;;;;;;;16.56;41.31;102517.16;4943254;28;20114;-45
2022/03/19 10:04:31;;;;;;;11.20;4.47;;;;;;;16.80;40.53;102518.28;4947065;28;20050;-40
2022/03/19 10:09:47;;;;;;;11.52;3.88;;;;;;;16.96;40.98;102509.72;4945030;28;20463;-45
2022/03/19 10:14:54;;;;;;;9.30;3.53;;;;;;;16.95;41.14;102497.50;5056865;27;20942;-40
2022/03/19 10:20:22;;;;;;;14.00;7.50;;;;;;;16.91;41.55;102500.06;5154741;27;20384;-41
2022/03/19 10:22:50;;;;;;;10.63;5.45;;;;;;;16.91;40.44;102485.25;5101699;27;20074;-45
2022/03/19 10:25:17;;;;;;;8.10;4.22;;;;;;;16.37;41.30;102490.78;5098546;28;20458;-43
2022/03/19 10:27:46;;;;;;;11.57;7.05;;;;;;;16.59;42.46;102496.25;5101079;28;20060;-41
2022/03/19 10:30:20;;;;;;;12.30;7.03;;;;;;;16.55;42.18;102497.09;5095281;28;20052;-42
2022/03/19 10:32:52;;;;;;;12.35;5.88;;;;;;;16.26;42.23;102484.53;5099583;28;20052;-43
2022/03/19 10:35:37;;;;;;;14.68;6.97;;;;;;;16.31;42.81;102482.84;5095507;28;20102;-45
2022/03/19 10:38:23;;;;;;;13.27;6.57;;;;;;;16.15;43.47;102477.41;5085458;28;20059;-42
2022/03/19 10:40:52;;;;;;;9.07;5.00;;;;;;;16.29;42.32;102480.22;5083038;28;20060;-41
2022/03/19 10:43:22;;;;;;;10.10;5.70;;;;;;;16.14;43.08;102469.56;5084115;28;20097;-41
2022/03/19 10:45:51;;;;;;;9.18;5.47;;;;;;;15.68;44.24;102474.13;5084579;28;20133;-44
2022/03/19 10:48:21;;;;;;;11.95;5.43;;;;;;;15.65;43.83;102466.28;5089433;28;20133;-44
2022/03/19 10:50:48;;;;;;;12.18;3.58;;;;;;;15.60;44.67;102462.69;5086645;28;20427;-42
2022/03/19 10:53:15;;;;;;;12.55;6.53;;;;;;;15.70;44.28;102457.63;5086978;28;20071;-41
2022/03/19 10:55:41;;;;;;;10.93;5.72;;;;;;;15.56;44.21;102460.88;5077723;28;20049;-41
2022/03/19 10:58:08;;;;;;;12.38;5.45;;;;;;;15.06;44.29;102460.09;5073613;28;20044;-43
2022/03/19 11:00:56;;;;;;;10.73;5.82;;;;;;;14.86;44.54;102462.38;5083397;28;20536;-41
2022/03/19 11:03:27;;;;;;;10.35;3.63;;;;;;;14.48;45.11;102460.75;5078774;28;20803;-43
2022/03/19 11:06:03;;;;;;;9.15;5.18;;;;;;;14.23;45.22;102457.66;5087201;28;20506;-42
2022/03/19 11:08:30;;;;;;;9.50;4.78;;;;;;;14.23;46.29;102457.66;5085726;28;20452;-42
2022/03/19 11:10:58;;;;;;;12.00;5.80;;;;;;;14.06;47.01;102458.19;5090995;28;20117;-42
2022/03/19 11:13:30;;;;;;;10.63;3.33;;;;;;;14.01;47.28;102459.78;5085527;28;20654;-38
2022/03/19 11:16:00;;;;;;;9.93;4.15;;;;;;;13.78;46.37;102462.75;5075909;28;20113;-42
2022/03/19 11:18:26;;;;;;;;;;;;;;;13.56;46.39;102450.97;5090906;28;20047;-45
2022/03/19 11:20:53;;;;;;;9.65;4.45;;;;;;;13.71;48.21;102453.94;5086142;28;19920;-45
2022/03/19 11:23:26;;;;;;;7.65;4.68;;;;;;;13.78;48.55;102441.91;5077882;28;20106;-44
2022/03/19 11:25:54;;;;;;;10.18;5.38;;;;;;;13.62;47.54;102472.81;5074946;28;20048;-43
2022/03/19 11:28:21;;;;;;;11.70;4.40;;;;;;;13.59;48.85;102444.13;5083804;28;20036;-39
2022/03/19 11:31:09;;;;;;;12.20;5.43;;;;;;;13.45;48.57;102442.88;5069939;28;20104;-41
2022/03/19 11:33:37;;;;;;;17.17;5.88;;;;;;;13.21;49.35;102439.72;5070263;28;20106;-41
2022/03/19 11:36:07;;;;;;;9.80;4.43;;;;;;;13.27;49.79;102432.91;5069491;28;20052;-38
2022/03/19 11:38:41;;;;;;;11.32;5.25;;;;;;;13.13;49.47;102462.06;5071054;28;20098;-44
2022/03/19 11:41:19;;;;;;;12.32;5.10;;;;;;;13.05;49.32;102428.06;5071490;28;20549;-40
2022/03/19 11:43:45;;;;;;;11.30;6.47;;;;;;;13.10;49.24;102426.44;5065838;28;20106;-39
2022/03/19 11:46:12;;;;;;;9.18;5.40;;;;;;;13.07;49.52;102431.56;5068317;28;20476;-42
2022/03/19 11:54:19;;;;;;;9.65;2.40;;;;;;;13.02;48.16;102412.38;5038802;28;20423;-38
2022/03/19 12:07:47;;;;;;;5.18;2.05;;;;;;;13.26;46.89;102399.91;5037541;28;20898;-42
2022/03/19 12:10:16;;;;;;;4.43;2.22;;;;;;;13.24;45.96;102386.84;5024292;28;20050;-46
2022/03/19 12:12:45;;;;;;;4.90;1.90;;;;;;;13.25;45.77;102399.03;5020378;28;20672;-46
2022/03/19 12:21:14;;;;;;;6.07;3.63;;;;;;;13.03;44.82;102377.69;5032165;28;20415;-45